sensor_id;sensor_type;location;lat;lon;timestamp;P1;durP1;ratioP1;P2;durP2;ratioP2
20110;SDS011;10216;42.658;23.248;2022-12-29T00:01:59;46.70;;;33.53;;
20110;SDS011;10216;42.658;23.248;2022-12-29T00:04:24;45.53;;;34.53;;
20110;SDS011;10216;42.658;23.248;2022-12-29T00:06:49;50.13;;;35.57;;
20110;SDS011;10216;42.658;23.248;2022-12-29T00:09:15;43.77;;;33.20;;
20110;SDS011;10216;42.658;23.248;2022-12-29T00:11:40;46.77;;;34.17;;
20110;SDS011;10216;42.658;23.248;2022-12-29T00:14:07;47.43;;;33.37;;
20110;SDS011;10216;42.658;23.248;2022-12-29T00:16:51;42.53;;;32.00;;
20110;SDS011;10216;42.658;23.248;2022-12-29T00:19:16;44.77;;;32.87;;
20110;SDS011;10216;42.658;23.248;2022-12-29T00:22:00;47.23;;;33.73;;
20110;SDS011;10216;42.658;23.248;2022-12-29T00:24:44;48.23;;;34.47;;
20110;SDS011;10216;42.658;23.248;2022-12-29T00:27:28;48.27;;;33.43;;
20110;SDS011;10216;42.658;23.248;2022-12-29T00:30:14;48.47;;;33.53;;
20110;SDS011;10216;42.658;23.248;2022-12-29T00:32:58;47.53;;;34.97;;
20110;SDS011;10216;42.658;23.248;2022-12-29T00:35:46;43.27;;;33.40;;
20110;SDS011;10216;42.658;23.248;2022-12-29T00:38:12;48.90;;;35.47;;
20110;SDS011;10216;42.658;23.248;2022-12-29T00:40:57;50.10;;;36.07;;
20110;SDS011;10216;42.658;23.248;2022-12-29T00:43:41;50.30;;;35.53;;
20110;SDS011;10216;42.658;23.248;2022-12-29T00:46:25;50.63;;;36.13;;
20110;SDS011;10216;42.658;23.248;2022-12-29T00:48:50;55.43;;;38.80;;
20110;SDS011;10216;42.658;23.248;2022-12-29T00:51:33;48.10;;;36.17;;
20110;SDS011;10216;42.658;23.248;2022-12-29T00:53:59;51.23;;;37.00;;
20110;SDS011;10216;42.658;23.248;2022-12-29T00:56:24;50.57;;;36.43;;
20110;SDS011;10216;42.658;23.248;2022-12-29T00:58:49;50.50;;;34.87;;
20110;SDS011;10216;42.658;23.248;2022-12-29T01:01:14;50.03;;;34.57;;
20110;SDS011;10216;42.658;23.248;2022-12-29T01:03:40;44.33;;;33.67;;
20110;SDS011;10216;42.658;23.248;2022-12-29T01:06:06;46.00;;;34.87;;
20110;SDS011;10216;42.658;23.248;2022-12-29T01:08:32;46.40;;;34.27;;
20110;SDS011;10216;42.658;23.248;2022-12-29T01:11:04;48.30;;;33.83;;
20110;SDS011;10216;42.658;23.248;2022-12-29T01:13:30;47.17;;;33.70;;
20110;SDS011;10216;42.658;23.248;2022-12-29T01:15:56;46.67;;;34.03;;
20110;SDS011;10216;42.658;23.248;2022-12-29T01:18:22;51.27;;;34.90;;
20110;SDS011;10216;42.658;23.248;2022-12-29T01:20:47;47.87;;;34.43;;
20110;SDS011;10216;42.658;23.248;2022-12-29T01:23:13;47.93;;;33.13;;
20110;SDS011;10216;42.658;23.248;2022-12-29T01:25:38;48.23;;;35.87;;
20110;SDS011;10216;42.658;23.248;2022-12-29T01:28:03;48.03;;;34.80;;
20110;SDS011;10216;42.658;23.248;2022-12-29T01:30:29;45.93;;;33.83;;
20110;SDS011;10216;42.658;23.248;2022-12-29T01:32:54;47.33;;;34.80;;
20110;SDS011;10216;42.658;23.248;2022-12-29T01:35:19;43.80;;;33.00;;
20110;SDS011;10216;42.658;23.248;2022-12-29T01:37:44;48.73;;;33.47;;
20110;SDS011;10216;42.658;23.248;2022-12-29T01:40:11;47.53;;;33.03;;
20110;SDS011;10216;42.658;23.248;2022-12-29T01:42:36;48.23;;;33.77;;
20110;SDS011;10216;42.658;23.248;2022-12-29T01:45:11;47.30;;;32.70;;
20110;SDS011;10216;42.658;23.248;2022-12-29T01:47:47;49.17;;;34.70;;
20110;SDS011;10216;42.658;23.248;2022-12-29T01:50:18;46.90;;;32.30;;
20110;SDS011;10216;42.658;23.248;2022-12-29T01:52:56;47.07;;;32.80;;
20110;SDS011;10216;42.658;23.248;2022-12-29T01:55:23;45.27;;;32.13;;
20110;SDS011;10216;42.658;23.248;2022-12-29T01:57:49;47.30;;;33.07;;
20110;SDS011;10216;42.658;23.248;2022-12-29T02:00:16;49.90;;;33.40;;
20110;SDS011;10216;42.658;23.248;2022-12-29T02:02:42;48.83;;;33.40;;
20110;SDS011;10216;42.658;23.248;2022-12-29T02:05:14;46.30;;;33.30;;
20110;SDS011;10216;42.658;23.248;2022-12-29T02:07:40;47.33;;;33.33;;
20110;SDS011;10216;42.658;23.248;2022-12-29T02:10:06;49.40;;;34.67;;
20110;SDS011;10216;42.658;23.248;2022-12-29T02:12:31;45.47;;;33.60;;
20110;SDS011;10216;42.658;23.248;2022-12-29T02:14:58;48.03;;;36.73;;
20110;SDS011;10216;42.658;23.248;2022-12-29T02:20:09;51.80;;;35.40;;
20110;SDS011;10216;42.658;23.248;2022-12-29T02:27:49;47.40;;;34.50;;
20110;SDS011;10216;42.658;23.248;2022-12-29T02:41:00;45.63;;;33.70;;
20110;SDS011;10216;42.658;23.248;2022-12-29T02:43:34;49.50;;;35.47;;
20110;SDS011;10216;42.658;23.248;2022-12-29T02:46:10;47.17;;;35.17;;
20110;SDS011;10216;42.658;23.248;2022-12-29T02:48:38;45.43;;;33.30;;
20110;SDS011;10216;42.658;23.248;2022-12-29T02:51:07;41.87;;;33.43;;
20110;SDS011;10216;42.658;23.248;2022-12-29T02:53:34;46.07;;;34.30;;
20110;SDS011;10216;42.658;23.248;2022-12-29T02:56:18;45.90;;;33.10;;
20110;SDS011;10216;42.658;23.248;2022-12-29T02:58:43;43.43;;;32.87;;
20110;SDS011;10216;42.658;23.248;2022-12-29T03:01:14;45.07;;;34.27;;
20110;SDS011;10216;42.658;23.248;2022-12-29T03:06:29;45.80;;;31.97;;
20110;SDS011;10216;42.658;23.248;2022-12-29T03:09:06;48.70;;;31.73;;
20110;SDS011;10216;42.658;23.248;2022-12-29T03:11:39;42.80;;;32.10;;
20110;SDS011;10216;42.658;23.248;2022-12-29T03:17:11;45.80;;;32.63;;
20110;SDS011;10216;42.658;23.248;2022-12-29T03:19:43;42.23;;;30.97;;
20110;SDS011;10216;42.658;23.248;2022-12-29T03:22:12;43.77;;;31.50;;
20110;SDS011;10216;42.658;23.248;2022-12-29T03:24:59;40.70;;;30.77;;
20110;SDS011;10216;42.658;23.248;2022-12-29T03:27:30;41.63;;;31.60;;
20110;SDS011;10216;42.658;23.248;2022-12-29T03:30:00;42.97;;;31.17;;
20110;SDS011;10216;42.658;23.248;2022-12-29T03:32:42;40.27;;;31.10;;
20110;SDS011;10216;42.658;23.248;2022-12-29T03:35:09;42.53;;;30.23;;
20110;SDS011;10216;42.658;23.248;2022-12-29T03:37:38;39.60;;;30.53;;
20110;SDS011;10216;42.658;23.248;2022-12-29T03:40:05;45.17;;;31.80;;
20110;SDS011;10216;42.658;23.248;2022-12-29T03:42:31;41.87;;;32.17;;
20110;SDS011;10216;42.658;23.248;2022-12-29T03:44:57;42.70;;;31.20;;
20110;SDS011;10216;42.658;23.248;2022-12-29T03:47:23;44.40;;;31.83;;
20110;SDS011;10216;42.658;23.248;2022-12-29T03:49:49;45.10;;;32.50;;
20110;SDS011;10216;42.658;23.248;2022-12-29T03:52:14;51.27;;;34.33;;
20110;SDS011;10216;42.658;23.248;2022-12-29T03:54:39;51.30;;;34.67;;
20110;SDS011;10216;42.658;23.248;2022-12-29T03:57:05;51.60;;;35.73;;
20110;SDS011;10216;42.658;23.248;2022-12-29T03:59:30;51.53;;;36.43;;
20110;SDS011;10216;42.658;23.248;2022-12-29T04:01:55;56.23;;;37.23;;
20110;SDS011;10216;42.658;23.248;2022-12-29T04:04:21;52.80;;;37.73;;
20110;SDS011;10216;42.658;23.248;2022-12-29T04:06:46;54.77;;;39.03;;
20110;SDS011;10216;42.658;23.248;2022-12-29T04:09:11;54.27;;;38.03;;
20110;SDS011;10216;42.658;23.248;2022-12-29T04:11:36;55.23;;;38.97;;
20110;SDS011;10216;42.658;23.248;2022-12-29T04:14:02;55.37;;;39.40;;
20110;SDS011;10216;42.658;23.248;2022-12-29T04:16:27;56.93;;;39.10;;
20110;SDS011;10216;42.658;23.248;2022-12-29T04:18:52;54.10;;;38.97;;
20110;SDS011;10216;42.658;23.248;2022-12-29T04:21:17;52.83;;;37.40;;
20110;SDS011;10216;42.658;23.248;2022-12-29T04:23:42;54.57;;;36.57;;
20110;SDS011;10216;42.658;23.248;2022-12-29T04:26:08;54.27;;;36.23;;
20110;SDS011;10216;42.658;23.248;2022-12-29T04:28:34;47.93;;;33.80;;
20110;SDS011;10216;42.658;23.248;2022-12-29T04:30:59;51.10;;;34.50;;
20110;SDS011;10216;42.658;23.248;2022-12-29T04:33:25;54.10;;;34.23;;
20110;SDS011;10216;42.658;23.248;2022-12-29T04:35:50;50.60;;;35.50;;
20110;SDS011;10216;42.658;23.248;2022-12-29T04:38:17;48.10;;;35.27;;
20110;SDS011;10216;42.658;23.248;2022-12-29T04:40:42;49.13;;;34.23;;
20110;SDS011;10216;42.658;23.248;2022-12-29T04:43:08;49.07;;;34.30;;
20110;SDS011;10216;42.658;23.248;2022-12-29T04:45:33;47.87;;;33.40;;
20110;SDS011;10216;42.658;23.248;2022-12-29T04:47:58;53.33;;;34.67;;
20110;SDS011;10216;42.658;23.248;2022-12-29T04:50:24;50.33;;;32.23;;
20110;SDS011;10216;42.658;23.248;2022-12-29T04:52:49;47.23;;;33.27;;
20110;SDS011;10216;42.658;23.248;2022-12-29T04:55:14;47.20;;;32.47;;
20110;SDS011;10216;42.658;23.248;2022-12-29T04:57:39;46.97;;;33.27;;
20110;SDS011;10216;42.658;23.248;2022-12-29T05:00:05;44.53;;;32.27;;
20110;SDS011;10216;42.658;23.248;2022-12-29T05:02:31;48.90;;;33.17;;
20110;SDS011;10216;42.658;23.248;2022-12-29T05:04:56;59.40;;;43.20;;
20110;SDS011;10216;42.658;23.248;2022-12-29T05:07:21;46.50;;;34.27;;
20110;SDS011;10216;42.658;23.248;2022-12-29T05:09:46;52.23;;;36.60;;
20110;SDS011;10216;42.658;23.248;2022-12-29T05:12:11;47.80;;;34.20;;
20110;SDS011;10216;42.658;23.248;2022-12-29T05:14:37;47.70;;;34.03;;
20110;SDS011;10216;42.658;23.248;2022-12-29T05:20:05;45.47;;;33.20;;
20110;SDS011;10216;42.658;23.248;2022-12-29T05:22:31;49.60;;;34.33;;
20110;SDS011;10216;42.658;23.248;2022-12-29T05:24:58;52.67;;;36.63;;
20110;SDS011;10216;42.658;23.248;2022-12-29T05:27:24;50.23;;;35.90;;
20110;SDS011;10216;42.658;23.248;2022-12-29T05:29:49;50.20;;;35.63;;
20110;SDS011;10216;42.658;23.248;2022-12-29T05:32:14;55.20;;;37.57;;
20110;SDS011;10216;42.658;23.248;2022-12-29T05:34:40;49.77;;;35.00;;
20110;SDS011;10216;42.658;23.248;2022-12-29T05:37:05;46.73;;;34.63;;
20110;SDS011;10216;42.658;23.248;2022-12-29T05:39:30;51.87;;;36.67;;
20110;SDS011;10216;42.658;23.248;2022-12-29T05:41:55;53.03;;;36.30;;
20110;SDS011;10216;42.658;23.248;2022-12-29T05:44:21;49.00;;;34.63;;
20110;SDS011;10216;42.658;23.248;2022-12-29T05:46:46;56.30;;;40.53;;
20110;SDS011;10216;42.658;23.248;2022-12-29T05:49:11;48.73;;;35.20;;
20110;SDS011;10216;42.658;23.248;2022-12-29T05:54:39;45.80;;;35.67;;
20110;SDS011;10216;42.658;23.248;2022-12-29T05:57:04;46.60;;;37.13;;
20110;SDS011;10216;42.658;23.248;2022-12-29T05:59:30;50.67;;;36.10;;
20110;SDS011;10216;42.658;23.248;2022-12-29T06:01:55;49.47;;;35.83;;
20110;SDS011;10216;42.658;23.248;2022-12-29T06:04:20;50.07;;;38.07;;
20110;SDS011;10216;42.658;23.248;2022-12-29T06:06:45;50.70;;;38.97;;
20110;SDS011;10216;42.658;23.248;2022-12-29T06:09:11;49.63;;;37.60;;
20110;SDS011;10216;42.658;23.248;2022-12-29T06:11:36;51.10;;;37.90;;
20110;SDS011;10216;42.658;23.248;2022-12-29T06:14:02;47.80;;;35.20;;
20110;SDS011;10216;42.658;23.248;2022-12-29T06:16:27;48.67;;;36.60;;
20110;SDS011;10216;42.658;23.248;2022-12-29T06:18:52;48.80;;;35.17;;
20110;SDS011;10216;42.658;23.248;2022-12-29T06:21:18;45.77;;;34.47;;
20110;SDS011;10216;42.658;23.248;2022-12-29T06:23:43;55.03;;;36.13;;
20110;SDS011;10216;42.658;23.248;2022-12-29T06:26:09;47.87;;;35.90;;
20110;SDS011;10216;42.658;23.248;2022-12-29T06:28:34;48.00;;;36.00;;
20110;SDS011;10216;42.658;23.248;2022-12-29T06:30:59;49.73;;;35.43;;
20110;SDS011;10216;42.658;23.248;2022-12-29T06:33:24;56.77;;;36.90;;
20110;SDS011;10216;42.658;23.248;2022-12-29T06:35:50;50.17;;;36.83;;
20110;SDS011;10216;42.658;23.248;2022-12-29T06:38:15;51.90;;;37.43;;
20110;SDS011;10216;42.658;23.248;2022-12-29T06:40:41;54.20;;;37.27;;
20110;SDS011;10216;42.658;23.248;2022-12-29T06:43:06;51.13;;;37.63;;
20110;SDS011;10216;42.658;23.248;2022-12-29T06:45:32;52.87;;;39.00;;
20110;SDS011;10216;42.658;23.248;2022-12-29T06:47:57;54.67;;;39.07;;
20110;SDS011;10216;42.658;23.248;2022-12-29T06:50:22;53.60;;;38.53;;
20110;SDS011;10216;42.658;23.248;2022-12-29T06:52:48;56.90;;;41.93;;
20110;SDS011;10216;42.658;23.248;2022-12-29T06:55:13;54.37;;;39.17;;
20110;SDS011;10216;42.658;23.248;2022-12-29T06:57:38;49.23;;;36.90;;
20110;SDS011;10216;42.658;23.248;2022-12-29T07:00:04;54.40;;;39.40;;
20110;SDS011;10216;42.658;23.248;2022-12-29T07:02:30;48.30;;;35.30;;
20110;SDS011;10216;42.658;23.248;2022-12-29T07:04:55;48.13;;;34.63;;
20110;SDS011;10216;42.658;23.248;2022-12-29T07:07:20;46.00;;;34.17;;
20110;SDS011;10216;42.658;23.248;2022-12-29T07:09:48;45.23;;;31.50;;
20110;SDS011;10216;42.658;23.248;2022-12-29T07:12:13;44.83;;;31.97;;
20110;SDS011;10216;42.658;23.248;2022-12-29T07:14:38;39.83;;;30.50;;
20110;SDS011;10216;42.658;23.248;2022-12-29T07:17:04;38.70;;;29.70;;
20110;SDS011;10216;42.658;23.248;2022-12-29T07:19:31;39.77;;;30.53;;
20110;SDS011;10216;42.658;23.248;2022-12-29T07:21:56;43.23;;;31.03;;
20110;SDS011;10216;42.658;23.248;2022-12-29T07:24:21;40.73;;;31.10;;
20110;SDS011;10216;42.658;23.248;2022-12-29T07:26:47;44.13;;;33.23;;
20110;SDS011;10216;42.658;23.248;2022-12-29T07:29:12;42.63;;;33.50;;
20110;SDS011;10216;42.658;23.248;2022-12-29T07:31:37;42.57;;;32.33;;
20110;SDS011;10216;42.658;23.248;2022-12-29T07:34:02;44.60;;;32.73;;
20110;SDS011;10216;42.658;23.248;2022-12-29T07:36:28;42.93;;;31.63;;
20110;SDS011;10216;42.658;23.248;2022-12-29T07:38:53;43.57;;;31.47;;
20110;SDS011;10216;42.658;23.248;2022-12-29T07:41:21;41.93;;;32.37;;
20110;SDS011;10216;42.658;23.248;2022-12-29T07:43:46;47.13;;;33.80;;
20110;SDS011;10216;42.658;23.248;2022-12-29T07:46:12;49.83;;;32.67;;
20110;SDS011;10216;42.658;23.248;2022-12-29T07:48:37;44.53;;;31.67;;
20110;SDS011;10216;42.658;23.248;2022-12-29T07:51:02;38.27;;;29.53;;
20110;SDS011;10216;42.658;23.248;2022-12-29T07:53:27;39.13;;;29.80;;
20110;SDS011;10216;42.658;23.248;2022-12-29T07:55:53;36.37;;;27.80;;
20110;SDS011;10216;42.658;23.248;2022-12-29T07:58:18;37.30;;;29.53;;
20110;SDS011;10216;42.658;23.248;2022-12-29T08:00:43;39.40;;;30.53;;
20110;SDS011;10216;42.658;23.248;2022-12-29T08:03:08;37.70;;;29.50;;
20110;SDS011;10216;42.658;23.248;2022-12-29T08:05:34;37.90;;;29.83;;
20110;SDS011;10216;42.658;23.248;2022-12-29T08:07:59;34.73;;;28.40;;
20110;SDS011;10216;42.658;23.248;2022-12-29T08:10:25;40.00;;;28.70;;
20110;SDS011;10216;42.658;23.248;2022-12-29T08:12:50;34.10;;;27.63;;
20110;SDS011;10216;42.658;23.248;2022-12-29T08:15:15;37.67;;;28.27;;
20110;SDS011;10216;42.658;23.248;2022-12-29T08:17:41;39.90;;;28.67;;
20110;SDS011;10216;42.658;23.248;2022-12-29T08:20:06;35.73;;;27.80;;
20110;SDS011;10216;42.658;23.248;2022-12-29T08:22:31;33.23;;;27.67;;
20110;SDS011;10216;42.658;23.248;2022-12-29T08:24:57;34.40;;;27.53;;
20110;SDS011;10216;42.658;23.248;2022-12-29T08:27:22;35.40;;;29.47;;
20110;SDS011;10216;42.658;23.248;2022-12-29T08:29:47;37.97;;;29.27;;
20110;SDS011;10216;42.658;23.248;2022-12-29T08:32:13;38.60;;;29.50;;
20110;SDS011;10216;42.658;23.248;2022-12-29T08:34:38;36.40;;;28.50;;
20110;SDS011;10216;42.658;23.248;2022-12-29T08:37:03;36.47;;;28.43;;
20110;SDS011;10216;42.658;23.248;2022-12-29T08:39:29;39.33;;;27.87;;
20110;SDS011;10216;42.658;23.248;2022-12-29T08:41:56;36.67;;;28.13;;
20110;SDS011;10216;42.658;23.248;2022-12-29T08:44:21;35.77;;;28.53;;
20110;SDS011;10216;42.658;23.248;2022-12-29T08:46:47;38.13;;;29.40;;
20110;SDS011;10216;42.658;23.248;2022-12-29T08:49:12;37.33;;;29.03;;
20110;SDS011;10216;42.658;23.248;2022-12-29T08:51:37;39.13;;;30.57;;
20110;SDS011;10216;42.658;23.248;2022-12-29T08:54:03;37.90;;;31.03;;
20110;SDS011;10216;42.658;23.248;2022-12-29T08:56:28;42.97;;;31.53;;
20110;SDS011;10216;42.658;23.248;2022-12-29T08:58:53;37.40;;;30.00;;
20110;SDS011;10216;42.658;23.248;2022-12-29T09:01:19;40.17;;;29.30;;
20110;SDS011;10216;42.658;23.248;2022-12-29T09:03:44;33.97;;;27.77;;
20110;SDS011;10216;42.658;23.248;2022-12-29T09:06:09;39.87;;;28.20;;
20110;SDS011;10216;42.658;23.248;2022-12-29T09:08:35;35.33;;;29.60;;
20110;SDS011;10216;42.658;23.248;2022-12-29T09:11:11;37.97;;;29.77;;
20110;SDS011;10216;42.658;23.248;2022-12-29T09:13:36;36.77;;;28.13;;
20110;SDS011;10216;42.658;23.248;2022-12-29T09:16:01;33.87;;;27.57;;
20110;SDS011;10216;42.658;23.248;2022-12-29T09:18:27;40.23;;;28.33;;
20110;SDS011;10216;42.658;23.248;2022-12-29T09:20:55;37.53;;;29.07;;
20110;SDS011;10216;42.658;23.248;2022-12-29T09:23:21;58.70;;;40.43;;
20110;SDS011;10216;42.658;23.248;2022-12-29T09:25:46;38.13;;;29.80;;
20110;SDS011;10216;42.658;23.248;2022-12-29T09:28:12;36.10;;;26.70;;
20110;SDS011;10216;42.658;23.248;2022-12-29T09:30:37;32.53;;;26.27;;
20110;SDS011;10216;42.658;23.248;2022-12-29T09:33:02;32.43;;;24.67;;
20110;SDS011;10216;42.658;23.248;2022-12-29T09:35:28;33.47;;;25.47;;
20110;SDS011;10216;42.658;23.248;2022-12-29T09:37:53;30.20;;;24.73;;
20110;SDS011;10216;42.658;23.248;2022-12-29T09:40:28;34.13;;;25.60;;
20110;SDS011;10216;42.658;23.248;2022-12-29T09:45:42;38.23;;;26.17;;
20110;SDS011;10216;42.658;23.248;2022-12-29T09:48:20;28.37;;;23.63;;
20110;SDS011;10216;42.658;23.248;2022-12-29T09:50:47;29.60;;;23.10;;
20110;SDS011;10216;42.658;23.248;2022-12-29T09:53:20;31.80;;;24.43;;
20110;SDS011;10216;42.658;23.248;2022-12-29T09:55:47;29.30;;;23.93;;
20110;SDS011;10216;42.658;23.248;2022-12-29T10:00:41;28.17;;;23.40;;
20110;SDS011;10216;42.658;23.248;2022-12-29T10:03:16;31.20;;;25.40;;
20110;SDS011;10216;42.658;23.248;2022-12-29T10:08:36;31.70;;;21.87;;
20110;SDS011;10216;42.658;23.248;2022-12-29T10:11:08;29.23;;;22.80;;
20110;SDS011;10216;42.658;23.248;2022-12-29T10:16:39;32.80;;;25.93;;
20110;SDS011;10216;42.658;23.248;2022-12-29T10:24:04;29.63;;;21.83;;
20110;SDS011;10216;42.658;23.248;2022-12-29T10:26:36;27.93;;;20.73;;
20110;SDS011;10216;42.658;23.248;2022-12-29T10:29:03;28.60;;;21.83;;
20110;SDS011;10216;42.658;23.248;2022-12-29T10:31:37;27.73;;;20.40;;
20110;SDS011;10216;42.658;23.248;2022-12-29T10:34:03;41.80;;;29.30;;
20110;SDS011;10216;42.658;23.248;2022-12-29T10:36:33;57.57;;;41.73;;
20110;SDS011;10216;42.658;23.248;2022-12-29T10:41:31;32.37;;;22.33;;
20110;SDS011;10216;42.658;23.248;2022-12-29T10:43:58;27.77;;;20.43;;
20110;SDS011;10216;42.658;23.248;2022-12-29T10:46:26;28.70;;;21.47;;
20110;SDS011;10216;42.658;23.248;2022-12-29T10:48:52;29.33;;;22.40;;
20110;SDS011;10216;42.658;23.248;2022-12-29T10:51:24;30.50;;;22.97;;
20110;SDS011;10216;42.658;23.248;2022-12-29T10:59:06;32.80;;;24.33;;
20110;SDS011;10216;42.658;23.248;2022-12-29T11:01:37;34.30;;;24.93;;
20110;SDS011;10216;42.658;23.248;2022-12-29T11:04:17;33.77;;;25.80;;
20110;SDS011;10216;42.658;23.248;2022-12-29T11:06:47;36.40;;;26.97;;
20110;SDS011;10216;42.658;23.248;2022-12-29T11:09:19;37.07;;;27.77;;
20110;SDS011;10216;42.658;23.248;2022-12-29T11:11:46;36.83;;;27.90;;
20110;SDS011;10216;42.658;23.248;2022-12-29T11:14:19;40.13;;;28.57;;
20110;SDS011;10216;42.658;23.248;2022-12-29T11:16:44;39.77;;;30.17;;
20110;SDS011;10216;42.658;23.248;2022-12-29T11:19:21;38.80;;;28.10;;
20110;SDS011;10216;42.658;23.248;2022-12-29T11:21:47;41.00;;;30.33;;
20110;SDS011;10216;42.658;23.248;2022-12-29T11:24:28;50.13;;;38.00;;
20110;SDS011;10216;42.658;23.248;2022-12-29T11:26:54;37.03;;;30.17;;
20110;SDS011;10216;42.658;23.248;2022-12-29T11:29:24;38.30;;;29.20;;
20110;SDS011;10216;42.658;23.248;2022-12-29T11:31:53;39.23;;;30.53;;
20110;SDS011;10216;42.658;23.248;2022-12-29T11:36:45;37.27;;;28.80;;
20110;SDS011;10216;42.658;23.248;2022-12-29T11:39:33;37.67;;;29.70;;
20110;SDS011;10216;42.658;23.248;2022-12-29T11:41:59;39.67;;;31.67;;
20110;SDS011;10216;42.658;23.248;2022-12-29T11:44:24;38.30;;;30.40;;
20110;SDS011;10216;42.658;23.248;2022-12-29T11:46:51;39.33;;;29.67;;
20110;SDS011;10216;42.658;23.248;2022-12-29T11:49:22;39.97;;;30.07;;
20110;SDS011;10216;42.658;23.248;2022-12-29T11:51:48;37.70;;;30.00;;
20110;SDS011;10216;42.658;23.248;2022-12-29T11:54:30;36.10;;;30.77;;
20110;SDS011;10216;42.658;23.248;2022-12-29T11:56:57;38.23;;;30.30;;
20110;SDS011;10216;42.658;23.248;2022-12-29T12:04:47;46.83;;;31.37;;
20110;SDS011;10216;42.658;23.248;2022-12-29T12:07:18;40.27;;;30.07;;
20110;SDS011;10216;42.658;23.248;2022-12-29T12:09:57;46.27;;;32.07;;
20110;SDS011;10216;42.658;23.248;2022-12-29T12:15:22;37.67;;;28.60;;
20110;SDS011;10216;42.658;23.248;2022-12-29T12:22:47;32.93;;;24.43;;
20110;SDS011;10216;42.658;23.248;2022-12-29T12:25:19;33.00;;;24.93;;
20110;SDS011;10216;42.658;23.248;2022-12-29T12:30:30;39.63;;;25.53;;
20110;SDS011;10216;42.658;23.248;2022-12-29T12:46:03;37.13;;;28.00;;
20110;SDS011;10216;42.658;23.248;2022-12-29T12:51:28;35.53;;;27.90;;
20110;SDS011;10216;42.658;23.248;2022-12-29T12:59:17;43.20;;;30.63;;
20110;SDS011;10216;42.658;23.248;2022-12-29T13:02:21;45.30;;;32.80;;
20110;SDS011;10216;42.658;23.248;2022-12-29T13:07:20;46.03;;;33.43;;
20110;SDS011;10216;42.658;23.248;2022-12-29T13:15:08;44.73;;;33.80;;
20110;SDS011;10216;42.658;23.248;2022-12-29T13:17:59;45.63;;;32.23;;
20110;SDS011;10216;42.658;23.248;2022-12-29T13:28:26;49.87;;;44.03;;
20110;SDS011;10216;42.658;23.248;2022-12-29T13:33:32;44.20;;;33.37;;
20110;SDS011;10216;42.658;23.248;2022-12-29T13:37:01;36.93;;;28.73;;
20110;SDS011;10216;42.658;23.248;2022-12-29T13:41:36;72.57;;;64.50;;
20110;SDS011;10216;42.658;23.248;2022-12-29T13:44:03;44.67;;;34.17;;
20110;SDS011;10216;42.658;23.248;2022-12-29T13:46:31;50.83;;;41.23;;
20110;SDS011;10216;42.658;23.248;2022-12-29T13:48:59;48.17;;;36.23;;
20110;SDS011;10216;42.658;23.248;2022-12-29T13:51:27;42.73;;;33.80;;
20110;SDS011;10216;42.658;23.248;2022-12-29T13:54:10;45.13;;;33.73;;
20110;SDS011;10216;42.658;23.248;2022-12-29T13:59:15;45.77;;;33.60;;
20110;SDS011;10216;42.658;23.248;2022-12-29T14:01:50;39.90;;;29.53;;
20110;SDS011;10216;42.658;23.248;2022-12-29T14:04:25;42.23;;;28.00;;
20110;SDS011;10216;42.658;23.248;2022-12-29T14:06:58;43.63;;;28.17;;
20110;SDS011;10216;42.658;23.248;2022-12-29T14:09:38;35.83;;;26.87;;
20110;SDS011;10216;42.658;23.248;2022-12-29T14:12:18;41.93;;;28.73;;
20110;SDS011;10216;42.658;23.248;2022-12-29T14:14:44;43.23;;;28.43;;
20110;SDS011;10216;42.658;23.248;2022-12-29T14:17:10;35.60;;;26.17;;
20110;SDS011;10216;42.658;23.248;2022-12-29T14:19:37;42.87;;;27.60;;
20110;SDS011;10216;42.658;23.248;2022-12-29T14:22:03;38.43;;;28.43;;
20110;SDS011;10216;42.658;23.248;2022-12-29T14:26:58;46.30;;;30.73;;
20110;SDS011;10216;42.658;23.248;2022-12-29T14:31:48;39.67;;;28.57;;
20110;SDS011;10216;42.658;23.248;2022-12-29T14:34:15;42.77;;;29.57;;
20110;SDS011;10216;42.658;23.248;2022-12-29T14:36:41;42.70;;;29.33;;
20110;SDS011;10216;42.658;23.248;2022-12-29T14:44:48;40.23;;;29.33;;
20110;SDS011;10216;42.658;23.248;2022-12-29T14:47:20;39.40;;;27.87;;
20110;SDS011;10216;42.658;23.248;2022-12-29T14:49:47;37.43;;;28.20;;
20110;SDS011;10216;42.658;23.248;2022-12-29T14:52:17;38.53;;;27.57;;
20110;SDS011;10216;42.658;23.248;2022-12-29T14:54:45;40.67;;;28.10;;
20110;SDS011;10216;42.658;23.248;2022-12-29T14:57:14;40.53;;;28.57;;
20110;SDS011;10216;42.658;23.248;2022-12-29T14:59:42;43.90;;;27.40;;
20110;SDS011;10216;42.658;23.248;2022-12-29T15:02:30;40.70;;;27.73;;
20110;SDS011;10216;42.658;23.248;2022-12-29T15:04:58;47.03;;;28.73;;
20110;SDS011;10216;42.658;23.248;2022-12-29T15:07:24;40.43;;;28.33;;
20110;SDS011;10216;42.658;23.248;2022-12-29T15:09:53;41.20;;;29.60;;
20110;SDS011;10216;42.658;23.248;2022-12-29T15:12:23;41.03;;;29.17;;
20110;SDS011;10216;42.658;23.248;2022-12-29T15:14:54;40.73;;;28.63;;
20110;SDS011;10216;42.658;23.248;2022-12-29T15:17:24;41.77;;;29.87;;
20110;SDS011;10216;42.658;23.248;2022-12-29T15:19:50;41.57;;;28.97;;
20110;SDS011;10216;42.658;23.248;2022-12-29T15:22:15;45.80;;;30.50;;
20110;SDS011;10216;42.658;23.248;2022-12-29T15:24:41;38.00;;;28.93;;
20110;SDS011;10216;42.658;23.248;2022-12-29T15:27:10;43.37;;;30.20;;
20110;SDS011;10216;42.658;23.248;2022-12-29T15:29:38;38.90;;;28.33;;
20110;SDS011;10216;42.658;23.248;2022-12-29T15:34:41;39.47;;;28.67;;
20110;SDS011;10216;42.658;23.248;2022-12-29T15:37:07;35.43;;;27.07;;
20110;SDS011;10216;42.658;23.248;2022-12-29T15:39:32;34.63;;;27.43;;
20110;SDS011;10216;42.658;23.248;2022-12-29T15:46:57;38.83;;;27.63;;
20110;SDS011;10216;42.658;23.248;2022-12-29T15:49:22;84.97;;;44.77;;
20110;SDS011;10216;42.658;23.248;2022-12-29T15:51:49;39.83;;;27.77;;
20110;SDS011;10216;42.658;23.248;2022-12-29T15:54:18;34.23;;;25.57;;
20110;SDS011;10216;42.658;23.248;2022-12-29T15:56:44;33.10;;;24.37;;
20110;SDS011;10216;42.658;23.248;2022-12-29T15:59:31;40.70;;;26.83;;
20110;SDS011;10216;42.658;23.248;2022-12-29T16:01:55;36.17;;;24.53;;
20110;SDS011;10216;42.658;23.248;2022-12-29T16:04:21;43.07;;;25.83;;
20110;SDS011;10216;42.658;23.248;2022-12-29T16:06:57;41.50;;;27.33;;
20110;SDS011;10216;42.658;23.248;2022-12-29T16:09:30;42.47;;;27.63;;
20110;SDS011;10216;42.658;23.248;2022-12-29T16:11:57;37.73;;;27.57;;
20110;SDS011;10216;42.658;23.248;2022-12-29T16:14:26;40.00;;;26.90;;
20110;SDS011;10216;42.658;23.248;2022-12-29T16:16:52;36.03;;;26.23;;
20110;SDS011;10216;42.658;23.248;2022-12-29T16:19:24;36.93;;;26.33;;
20110;SDS011;10216;42.658;23.248;2022-12-29T16:21:54;36.67;;;25.33;;
20110;SDS011;10216;42.658;23.248;2022-12-29T16:24:20;38.63;;;28.73;;
20110;SDS011;10216;42.658;23.248;2022-12-29T16:26:47;42.00;;;30.10;;
20110;SDS011;10216;42.658;23.248;2022-12-29T16:29:13;42.33;;;29.90;;
20110;SDS011;10216;42.658;23.248;2022-12-29T16:34:24;35.17;;;25.73;;